Pitt Meadows, Canada
Current Conditions -  °F | °C
As of 9:00 AM on Thursday 30 Oct 2014 (Local Time) from CYXX Reporting Station
Light Rain Light Rain  
Wind Chill: 54°   Ceiling: 8000
Heat Index: 54°   Visibility: 30mi
Dew Point: 46°   Wind: 8mph
Humidity: 77%   Direction: 40°NE
Pressure: 29.86"   Gusts: NA
Location:  49.23°N, 122.68°W
Report Text: CYXX 301600Z 04007KT 30SM -RA SCT050 BKN080 OVC100 12/08 A2986 RMK SC3AC3AS2 SLP113
Loading
Personal Weather Stations






























Interactive Weather Map
Tropical Storm Tracking
New forecast layout! Learn more

10-Day Weather Forecast

Advertisements
Track Severe Weather on mobile